sensor_id;sensor_type;location;lat;lon;timestamp;P1;durP1;ratioP1;P2;durP2;ratioP2
78895;SDS011;68284;59.124;37.910;2023-09-07T00:01:30;32.42;;;12.73;;
78895;SDS011;68284;59.124;37.910;2023-09-07T00:03:58;30.45;;;11.93;;
78895;SDS011;68284;59.124;37.910;2023-09-07T00:06:24;29.52;;;10.52;;
78895;SDS011;68284;59.124;37.910;2023-09-07T00:08:52;38.05;;;15.30;;
78895;SDS011;68284;59.124;37.910;2023-09-07T00:11:19;42.58;;;17.25;;
78895;SDS011;68284;59.124;37.910;2023-09-07T00:16:11;47.72;;;19.50;;
78895;SDS011;68284;59.124;37.910;2023-09-07T00:18:37;26.92;;;15.00;;
78895;SDS011;68284;59.124;37.910;2023-09-07T00:21:04;46.13;;;15.60;;
78895;SDS011;68284;59.124;37.910;2023-09-07T00:23:30;45.55;;;17.80;;
78895;SDS011;68284;59.124;37.910;2023-09-07T00:25:58;40.25;;;16.80;;
78895;SDS011;68284;59.124;37.910;2023-09-07T00:28:24;34.65;;;14.75;;
78895;SDS011;68284;59.124;37.910;2023-09-07T00:30:51;30.35;;;11.27;;
78895;SDS011;68284;59.124;37.910;2023-09-07T00:33:17;33.67;;;14.77;;
78895;SDS011;68284;59.124;37.910;2023-09-07T00:35:44;56.72;;;21.58;;
78895;SDS011;68284;59.124;37.910;2023-09-07T00:38:11;58.60;;;22.98;;
78895;SDS011;68284;59.124;37.910;2023-09-07T00:40:37;66.18;;;22.88;;
78895;SDS011;68284;59.124;37.910;2023-09-07T00:43:05;61.95;;;20.23;;
78895;SDS011;68284;59.124;37.910;2023-09-07T00:45:31;45.42;;;21.35;;
78895;SDS011;68284;59.124;37.910;2023-09-07T00:48:04;38.00;;;16.70;;
78895;SDS011;68284;59.124;37.910;2023-09-07T00:50:32;25.38;;;13.32;;
78895;SDS011;68284;59.124;37.910;2023-09-07T00:52:59;31.20;;;13.82;;
78895;SDS011;68284;59.124;37.910;2023-09-07T00:55:27;36.25;;;15.80;;
78895;SDS011;68284;59.124;37.910;2023-09-07T00:57:54;59.40;;;26.23;;
78895;SDS011;68284;59.124;37.910;2023-09-07T01:00:21;71.05;;;31.27;;
78895;SDS011;68284;59.124;37.910;2023-09-07T01:02:47;58.42;;;26.67;;
78895;SDS011;68284;59.124;37.910;2023-09-07T01:05:13;53.55;;;26.13;;
78895;SDS011;68284;59.124;37.910;2023-09-07T01:07:41;48.63;;;23.98;;
78895;SDS011;68284;59.124;37.910;2023-09-07T01:10:12;37.55;;;19.05;;
78895;SDS011;68284;59.124;37.910;2023-09-07T01:12:42;32.17;;;17.65;;
78895;SDS011;68284;59.124;37.910;2023-09-07T01:15:08;32.97;;;12.93;;
78895;SDS011;68284;59.124;37.910;2023-09-07T01:17:36;53.88;;;19.40;;
78895;SDS011;68284;59.124;37.910;2023-09-07T01:20:04;97.25;;;40.60;;
78895;SDS011;68284;59.124;37.910;2023-09-07T01:22:37;102.88;;;38.80;;
78895;SDS011;68284;59.124;37.910;2023-09-07T01:25:06;63.22;;;25.08;;
78895;SDS011;68284;59.124;37.910;2023-09-07T01:27:34;79.10;;;30.63;;
78895;SDS011;68284;59.124;37.910;2023-09-07T01:30:01;57.00;;;23.73;;
78895;SDS011;68284;59.124;37.910;2023-09-07T01:32:29;32.78;;;17.13;;
78895;SDS011;68284;59.124;37.910;2023-09-07T01:37:23;71.25;;;26.27;;
78895;SDS011;68284;59.124;37.910;2023-09-07T01:39:51;58.58;;;27.33;;
78895;SDS011;68284;59.124;37.910;2023-09-07T01:42:18;72.80;;;29.23;;
78895;SDS011;68284;59.124;37.910;2023-09-07T01:44:47;38.05;;;20.88;;
78895;SDS011;68284;59.124;37.910;2023-09-07T01:47:14;34.03;;;12.23;;
78895;SDS011;68284;59.124;37.910;2023-09-07T01:52:07;33.47;;;11.52;;
78895;SDS011;68284;59.124;37.910;2023-09-07T01:56:59;32.35;;;14.05;;
78895;SDS011;68284;59.124;37.910;2023-09-07T01:59:25;31.67;;;14.38;;
78895;SDS011;68284;59.124;37.910;2023-09-07T02:01:52;38.47;;;19.20;;
78895;SDS011;68284;59.124;37.910;2023-09-07T02:04:18;61.17;;;21.23;;
78895;SDS011;68284;59.124;37.910;2023-09-07T02:06:46;51.38;;;21.75;;
78895;SDS011;68284;59.124;37.910;2023-09-07T02:09:13;74.10;;;30.92;;
78895;SDS011;68284;59.124;37.910;2023-09-07T02:11:39;94.68;;;39.83;;
78895;SDS011;68284;59.124;37.910;2023-09-07T02:14:06;64.15;;;27.35;;
78895;SDS011;68284;59.124;37.910;2023-09-07T02:16:32;53.50;;;21.23;;
78895;SDS011;68284;59.124;37.910;2023-09-07T02:19:00;41.50;;;16.92;;
78895;SDS011;68284;59.124;37.910;2023-09-07T02:21:29;59.72;;;19.70;;
78895;SDS011;68284;59.124;37.910;2023-09-07T02:23:55;78.32;;;28.95;;
78895;SDS011;68284;59.124;37.910;2023-09-07T02:26:22;78.90;;;26.95;;
78895;SDS011;68284;59.124;37.910;2023-09-07T02:28:49;62.13;;;24.27;;
78895;SDS011;68284;59.124;37.910;2023-09-07T02:31:15;61.08;;;21.83;;
78895;SDS011;68284;59.124;37.910;2023-09-07T02:33:42;53.67;;;21.38;;
78895;SDS011;68284;59.124;37.910;2023-09-07T02:36:09;43.05;;;19.05;;
78895;SDS011;68284;59.124;37.910;2023-09-07T02:41:02;50.75;;;18.65;;
78895;SDS011;68284;59.124;37.910;2023-09-07T02:43:29;42.38;;;17.15;;
78895;SDS011;68284;59.124;37.910;2023-09-07T02:45:58;42.25;;;21.77;;
78895;SDS011;68284;59.124;37.910;2023-09-07T02:48:25;40.83;;;16.58;;
78895;SDS011;68284;59.124;37.910;2023-09-07T02:50:51;39.42;;;19.33;;
78895;SDS011;68284;59.124;37.910;2023-09-07T02:53:20;33.17;;;13.68;;
78895;SDS011;68284;59.124;37.910;2023-09-07T02:55:47;37.88;;;16.40;;
78895;SDS011;68284;59.124;37.910;2023-09-07T02:58:14;53.88;;;25.73;;
78895;SDS011;68284;59.124;37.910;2023-09-07T03:00:44;47.22;;;21.75;;
78895;SDS011;68284;59.124;37.910;2023-09-07T03:05:42;58.70;;;25.10;;
78895;SDS011;68284;59.124;37.910;2023-09-07T03:08:09;46.55;;;18.15;;
78895;SDS011;68284;59.124;37.910;2023-09-07T03:10:36;52.95;;;21.17;;
78895;SDS011;68284;59.124;37.910;2023-09-07T03:13:03;51.67;;;21.48;;
78895;SDS011;68284;59.124;37.910;2023-09-07T03:15:29;68.07;;;19.85;;
78895;SDS011;68284;59.124;37.910;2023-09-07T03:17:56;65.85;;;23.02;;
78895;SDS011;68284;59.124;37.910;2023-09-07T03:20:22;54.92;;;21.88;;
78895;SDS011;68284;59.124;37.910;2023-09-07T03:22:50;80.57;;;28.35;;
78895;SDS011;68284;59.124;37.910;2023-09-07T03:25:18;64.03;;;25.35;;
78895;SDS011;68284;59.124;37.910;2023-09-07T03:27:45;65.05;;;23.52;;
78895;SDS011;68284;59.124;37.910;2023-09-07T03:30:13;59.20;;;26.10;;
78895;SDS011;68284;59.124;37.910;2023-09-07T03:32:41;69.40;;;29.13;;
78895;SDS011;68284;59.124;37.910;2023-09-07T03:35:07;74.00;;;27.55;;
78895;SDS011;68284;59.124;37.910;2023-09-07T03:37:35;56.78;;;24.33;;
78895;SDS011;68284;59.124;37.910;2023-09-07T03:40:04;61.60;;;24.00;;
78895;SDS011;68284;59.124;37.910;2023-09-07T03:42:34;48.03;;;19.50;;
78895;SDS011;68284;59.124;37.910;2023-09-07T03:45:02;53.20;;;22.35;;
78895;SDS011;68284;59.124;37.910;2023-09-07T03:47:31;84.00;;;31.48;;
78895;SDS011;68284;59.124;37.910;2023-09-07T03:49:57;52.08;;;22.65;;
78895;SDS011;68284;59.124;37.910;2023-09-07T03:52:27;47.55;;;18.48;;
78895;SDS011;68284;59.124;37.910;2023-09-07T03:54:57;95.00;;;49.78;;
78895;SDS011;68284;59.124;37.910;2023-09-07T03:57:25;86.35;;;37.03;;
78895;SDS011;68284;59.124;37.910;2023-09-07T03:59:53;67.95;;;27.95;;
78895;SDS011;68284;59.124;37.910;2023-09-07T04:02:24;41.30;;;16.25;;
78895;SDS011;68284;59.124;37.910;2023-09-07T04:04:51;46.75;;;17.30;;
78895;SDS011;68284;59.124;37.910;2023-09-07T04:07:20;60.83;;;28.20;;
78895;SDS011;68284;59.124;37.910;2023-09-07T04:09:49;53.60;;;23.30;;
78895;SDS011;68284;59.124;37.910;2023-09-07T04:12:21;63.15;;;26.00;;
78895;SDS011;68284;59.124;37.910;2023-09-07T04:14:47;46.88;;;24.27;;
78895;SDS011;68284;59.124;37.910;2023-09-07T04:19:41;43.33;;;16.00;;
78895;SDS011;68284;59.124;37.910;2023-09-07T04:22:10;23.15;;;11.10;;
78895;SDS011;68284;59.124;37.910;2023-09-07T04:24:38;27.70;;;9.85;;
78895;SDS011;68284;59.124;37.910;2023-09-07T04:27:08;28.95;;;11.80;;
78895;SDS011;68284;59.124;37.910;2023-09-07T04:29:34;26.60;;;9.57;;
78895;SDS011;68284;59.124;37.910;2023-09-07T04:32:01;17.75;;;6.78;;
78895;SDS011;68284;59.124;37.910;2023-09-07T04:34:29;30.98;;;9.85;;
78895;SDS011;68284;59.124;37.910;2023-09-07T04:36:55;34.50;;;11.63;;
78895;SDS011;68284;59.124;37.910;2023-09-07T04:39:21;35.70;;;15.50;;
78895;SDS011;68284;59.124;37.910;2023-09-07T04:41:49;30.65;;;14.88;;
78895;SDS011;68284;59.124;37.910;2023-09-07T04:44:18;36.60;;;20.88;;
78895;SDS011;68284;59.124;37.910;2023-09-07T04:46:46;31.42;;;14.35;;
78895;SDS011;68284;59.124;37.910;2023-09-07T04:49:12;33.78;;;15.45;;
78895;SDS011;68284;59.124;37.910;2023-09-07T04:51:40;30.40;;;12.77;;
78895;SDS011;68284;59.124;37.910;2023-09-07T04:54:07;20.92;;;10.55;;
78895;SDS011;68284;59.124;37.910;2023-09-07T04:56:34;25.17;;;11.98;;
78895;SDS011;68284;59.124;37.910;2023-09-07T04:59:03;30.65;;;11.23;;
78895;SDS011;68284;59.124;37.910;2023-09-07T05:01:35;23.38;;;12.70;;
78895;SDS011;68284;59.124;37.910;2023-09-07T05:04:02;16.75;;;5.97;;
78895;SDS011;68284;59.124;37.910;2023-09-07T05:06:29;9.70;;;5.53;;
78895;SDS011;68284;59.124;37.910;2023-09-07T05:08:55;8.45;;;3.50;;
78895;SDS011;68284;59.124;37.910;2023-09-07T05:11:22;5.93;;;2.40;;
78895;SDS011;68284;59.124;37.910;2023-09-07T05:13:48;9.02;;;3.15;;
78895;SDS011;68284;59.124;37.910;2023-09-07T05:16:15;3.00;;;1.77;;
78895;SDS011;68284;59.124;37.910;2023-09-07T05:18:42;3.38;;;2.47;;
78895;SDS011;68284;59.124;37.910;2023-09-07T05:21:13;4.45;;;1.63;;
78895;SDS011;68284;59.124;37.910;2023-09-07T05:23:44;2.92;;;1.23;;
78895;SDS011;68284;59.124;37.910;2023-09-07T05:26:10;2.70;;;2.22;;
78895;SDS011;68284;59.124;37.910;2023-09-07T05:28:39;2.08;;;1.25;;
78895;SDS011;68284;59.124;37.910;2023-09-07T05:31:10;2.30;;;1.10;;
78895;SDS011;68284;59.124;37.910;2023-09-07T05:33:38;3.85;;;1.10;;
78895;SDS011;68284;59.124;37.910;2023-09-07T05:36:11;3.85;;;1.48;;
78895;SDS011;68284;59.124;37.910;2023-09-07T05:41:07;7.53;;;2.45;;
78895;SDS011;68284;59.124;37.910;2023-09-07T05:43:35;4.55;;;2.20;;
78895;SDS011;68284;59.124;37.910;2023-09-07T05:46:05;9.07;;;3.05;;
78895;SDS011;68284;59.124;37.910;2023-09-07T05:50:59;2.75;;;1.98;;
78895;SDS011;68284;59.124;37.910;2023-09-07T05:55:55;4.57;;;1.20;;
78895;SDS011;68284;59.124;37.910;2023-09-07T05:58:21;4.03;;;1.23;;
78895;SDS011;68284;59.124;37.910;2023-09-07T06:01:09;2.63;;;1.05;;
78895;SDS011;68284;59.124;37.910;2023-09-07T06:03:37;2.03;;;0.90;;
78895;SDS011;68284;59.124;37.910;2023-09-07T06:06:05;3.80;;;2.13;;
78895;SDS011;68284;59.124;37.910;2023-09-07T06:08:31;3.22;;;0.88;;
78895;SDS011;68284;59.124;37.910;2023-09-07T06:10:57;2.40;;;0.70;;
78895;SDS011;68284;59.124;37.910;2023-09-07T06:13:26;3.40;;;0.82;;
78895;SDS011;68284;59.124;37.910;2023-09-07T06:15:56;5.88;;;1.80;;
78895;SDS011;68284;59.124;37.910;2023-09-07T06:18:24;7.78;;;4.13;;
78895;SDS011;68284;59.124;37.910;2023-09-07T06:20:50;22.70;;;9.57;;
78895;SDS011;68284;59.124;37.910;2023-09-07T06:23:17;18.30;;;8.23;;
78895;SDS011;68284;59.124;37.910;2023-09-07T06:25:44;27.25;;;12.43;;
78895;SDS011;68284;59.124;37.910;2023-09-07T06:28:12;33.78;;;11.88;;
78895;SDS011;68284;59.124;37.910;2023-09-07T06:30:40;29.42;;;9.48;;
78895;SDS011;68284;59.124;37.910;2023-09-07T06:33:08;31.65;;;10.80;;
78895;SDS011;68284;59.124;37.910;2023-09-07T06:35:37;18.73;;;7.15;;
78895;SDS011;68284;59.124;37.910;2023-09-07T06:38:07;9.98;;;4.25;;
78895;SDS011;68284;59.124;37.910;2023-09-07T06:40:36;6.00;;;1.42;;
78895;SDS011;68284;59.124;37.910;2023-09-07T06:43:04;2.58;;;1.77;;
78895;SDS011;68284;59.124;37.910;2023-09-07T06:45:35;3.78;;;1.50;;
78895;SDS011;68284;59.124;37.910;2023-09-07T06:48:05;3.13;;;1.33;;
78895;SDS011;68284;59.124;37.910;2023-09-07T06:50:32;1.38;;;1.23;;
78895;SDS011;68284;59.124;37.910;2023-09-07T06:52:59;4.97;;;1.27;;
78895;SDS011;68284;59.124;37.910;2023-09-07T06:55:38;6.30;;;2.10;;
78895;SDS011;68284;59.124;37.910;2023-09-07T06:58:06;3.05;;;1.90;;
78895;SDS011;68284;59.124;37.910;2023-09-07T07:00:36;4.68;;;1.40;;
78895;SDS011;68284;59.124;37.910;2023-09-07T07:03:05;4.43;;;1.65;;
78895;SDS011;68284;59.124;37.910;2023-09-07T07:05:31;1.80;;;0.95;;
78895;SDS011;68284;59.124;37.910;2023-09-07T07:08:01;3.03;;;1.00;;
78895;SDS011;68284;59.124;37.910;2023-09-07T07:10:27;2.20;;;1.02;;
78895;SDS011;68284;59.124;37.910;2023-09-07T07:12:55;1.52;;;0.63;;
78895;SDS011;68284;59.124;37.910;2023-09-07T07:15:23;0.95;;;0.70;;
78895;SDS011;68284;59.124;37.910;2023-09-07T07:17:56;1.77;;;1.00;;
78895;SDS011;68284;59.124;37.910;2023-09-07T07:20:23;4.15;;;2.00;;
78895;SDS011;68284;59.124;37.910;2023-09-07T07:22:52;3.13;;;2.30;;
78895;SDS011;68284;59.124;37.910;2023-09-07T07:25:21;1.95;;;0.80;;
78895;SDS011;68284;59.124;37.910;2023-09-07T07:27:54;3.40;;;1.20;;
78895;SDS011;68284;59.124;37.910;2023-09-07T07:30:23;3.95;;;1.00;;
78895;SDS011;68284;59.124;37.910;2023-09-07T07:32:49;2.47;;;1.42;;
78895;SDS011;68284;59.124;37.910;2023-09-07T07:35:20;3.17;;;0.57;;
78895;SDS011;68284;59.124;37.910;2023-09-07T07:37:46;3.05;;;2.08;;
78895;SDS011;68284;59.124;37.910;2023-09-07T07:40:19;1.67;;;0.82;;
78895;SDS011;68284;59.124;37.910;2023-09-07T07:42:47;4.32;;;1.40;;
78895;SDS011;68284;59.124;37.910;2023-09-07T07:45:14;1.45;;;0.70;;
78895;SDS011;68284;59.124;37.910;2023-09-07T07:47:42;2.97;;;1.17;;
78895;SDS011;68284;59.124;37.910;2023-09-07T07:50:08;1.90;;;0.85;;
78895;SDS011;68284;59.124;37.910;2023-09-07T07:52:35;1.70;;;0.75;;
78895;SDS011;68284;59.124;37.910;2023-09-07T07:55:03;1.27;;;1.17;;
78895;SDS011;68284;59.124;37.910;2023-09-07T07:57:32;1.27;;;0.95;;
78895;SDS011;68284;59.124;37.910;2023-09-07T08:00:00;4.38;;;1.02;;
78895;SDS011;68284;59.124;37.910;2023-09-07T08:02:42;2.03;;;1.00;;
78895;SDS011;68284;59.124;37.910;2023-09-07T08:05:20;10.95;;;4.72;;
78895;SDS011;68284;59.124;37.910;2023-09-07T08:07:49;3.67;;;3.38;;
78895;SDS011;68284;59.124;37.910;2023-09-07T08:10:20;3.63;;;1.15;;
78895;SDS011;68284;59.124;37.910;2023-09-07T08:13:03;6.65;;;2.15;;
78895;SDS011;68284;59.124;37.910;2023-09-07T08:15:34;3.58;;;1.80;;
78895;SDS011;68284;59.124;37.910;2023-09-07T08:18:11;5.20;;;1.75;;
78895;SDS011;68284;59.124;37.910;2023-09-07T08:20:43;4.70;;;1.45;;
78895;SDS011;68284;59.124;37.910;2023-09-07T08:23:14;4.05;;;1.77;;
78895;SDS011;68284;59.124;37.910;2023-09-07T08:25:42;9.68;;;3.15;;
78895;SDS011;68284;59.124;37.910;2023-09-07T08:28:19;6.75;;;2.70;;
78895;SDS011;68284;59.124;37.910;2023-09-07T08:30:57;7.82;;;2.55;;
78895;SDS011;68284;59.124;37.910;2023-09-07T08:33:53;12.18;;;3.35;;
78895;SDS011;68284;59.124;37.910;2023-09-07T08:36:36;2.83;;;2.15;;
78895;SDS011;68284;59.124;37.910;2023-09-07T08:39:06;10.98;;;5.25;;
78895;SDS011;68284;59.124;37.910;2023-09-07T08:41:42;5.78;;;3.10;;
78895;SDS011;68284;59.124;37.910;2023-09-07T08:44:23;5.47;;;3.35;;
78895;SDS011;68284;59.124;37.910;2023-09-07T08:47:05;8.60;;;3.35;;
78895;SDS011;68284;59.124;37.910;2023-09-07T08:49:38;13.65;;;4.85;;
78895;SDS011;68284;59.124;37.910;2023-09-07T08:52:11;15.35;;;6.38;;
78895;SDS011;68284;59.124;37.910;2023-09-07T08:54:45;14.77;;;4.18;;
78895;SDS011;68284;59.124;37.910;2023-09-07T08:57:23;7.15;;;2.28;;
78895;SDS011;68284;59.124;37.910;2023-09-07T08:59:50;3.08;;;1.50;;
78895;SDS011;68284;59.124;37.910;2023-09-07T09:02:17;1.98;;;0.82;;
78895;SDS011;68284;59.124;37.910;2023-09-07T09:04:44;1.30;;;1.20;;
78895;SDS011;68284;59.124;37.910;2023-09-07T09:07:12;2.25;;;0.85;;
78895;SDS011;68284;59.124;37.910;2023-09-07T09:09:42;10.02;;;4.60;;
78895;SDS011;68284;59.124;37.910;2023-09-07T09:12:14;10.35;;;3.25;;
78895;SDS011;68284;59.124;37.910;2023-09-07T09:14:44;3.83;;;2.70;;
78895;SDS011;68284;59.124;37.910;2023-09-07T09:17:12;6.43;;;4.25;;
78895;SDS011;68284;59.124;37.910;2023-09-07T09:19:42;19.80;;;7.15;;
78895;SDS011;68284;59.124;37.910;2023-09-07T09:22:09;9.35;;;3.83;;
78895;SDS011;68284;59.124;37.910;2023-09-07T09:24:38;4.15;;;1.45;;
78895;SDS011;68284;59.124;37.910;2023-09-07T09:27:11;1.20;;;0.65;;
78895;SDS011;68284;59.124;37.910;2023-09-07T09:29:37;1.30;;;0.90;;
78895;SDS011;68284;59.124;37.910;2023-09-07T09:34:54;2.03;;;1.15;;
78895;SDS011;68284;59.124;37.910;2023-09-07T09:37:21;4.15;;;1.95;;
78895;SDS011;68284;59.124;37.910;2023-09-07T09:39:52;7.00;;;2.38;;
78895;SDS011;68284;59.124;37.910;2023-09-07T09:42:23;4.75;;;3.33;;
78895;SDS011;68284;59.124;37.910;2023-09-07T09:44:51;2.88;;;1.45;;
78895;SDS011;68284;59.124;37.910;2023-09-07T09:47:21;5.72;;;2.78;;
78895;SDS011;68284;59.124;37.910;2023-09-07T09:49:51;5.82;;;3.35;;
78895;SDS011;68284;59.124;37.910;2023-09-07T09:52:24;3.58;;;1.15;;
78895;SDS011;68284;59.124;37.910;2023-09-07T09:54:51;5.95;;;1.70;;
78895;SDS011;68284;59.124;37.910;2023-09-07T09:57:19;1.88;;;1.10;;
78895;SDS011;68284;59.124;37.910;2023-09-07T09:59:49;3.13;;;2.42;;
78895;SDS011;68284;59.124;37.910;2023-09-07T10:02:18;8.57;;;3.88;;
78895;SDS011;68284;59.124;37.910;2023-09-07T10:04:48;4.15;;;2.03;;
78895;SDS011;68284;59.124;37.910;2023-09-07T10:10:15;15.20;;;5.78;;
78895;SDS011;68284;59.124;37.910;2023-09-07T10:12:52;8.88;;;3.30;;
78895;SDS011;68284;59.124;37.910;2023-09-07T10:15:23;7.85;;;2.35;;
78895;SDS011;68284;59.124;37.910;2023-09-07T10:17:50;7.28;;;2.72;;
78895;SDS011;68284;59.124;37.910;2023-09-07T10:20:34;9.93;;;2.53;;
78895;SDS011;68284;59.124;37.910;2023-09-07T10:23:14;6.72;;;2.25;;
78895;SDS011;68284;59.124;37.910;2023-09-07T10:25:43;3.35;;;1.17;;
78895;SDS011;68284;59.124;37.910;2023-09-07T10:28:24;3.20;;;1.73;;
78895;SDS011;68284;59.124;37.910;2023-09-07T10:31:01;7.38;;;2.60;;
78895;SDS011;68284;59.124;37.910;2023-09-07T10:33:31;9.40;;;3.85;;
78895;SDS011;68284;59.124;37.910;2023-09-07T10:36:01;7.18;;;3.22;;
78895;SDS011;68284;59.124;37.910;2023-09-07T10:38:31;10.80;;;5.10;;
78895;SDS011;68284;59.124;37.910;2023-09-07T10:41:02;3.70;;;1.48;;
78895;SDS011;68284;59.124;37.910;2023-09-07T10:43:33;1.20;;;1.05;;
78895;SDS011;68284;59.124;37.910;2023-09-07T10:46:19;1.40;;;0.50;;
78895;SDS011;68284;59.124;37.910;2023-09-07T10:48:50;2.33;;;1.17;;
78895;SDS011;68284;59.124;37.910;2023-09-07T10:51:47;8.07;;;2.78;;
78895;SDS011;68284;59.124;37.910;2023-09-07T10:54:22;3.50;;;1.17;;
78895;SDS011;68284;59.124;37.910;2023-09-07T10:56:56;6.45;;;2.65;;
78895;SDS011;68284;59.124;37.910;2023-09-07T10:59:46;4.00;;;2.00;;
78895;SDS011;68284;59.124;37.910;2023-09-07T11:02:18;20.85;;;5.72;;
78895;SDS011;68284;59.124;37.910;2023-09-07T11:04:45;15.02;;;6.82;;
78895;SDS011;68284;59.124;37.910;2023-09-07T11:07:14;6.35;;;2.70;;
78895;SDS011;68284;59.124;37.910;2023-09-07T11:09:43;15.50;;;6.80;;
78895;SDS011;68284;59.124;37.910;2023-09-07T11:12:19;12.63;;;6.15;;
78895;SDS011;68284;59.124;37.910;2023-09-07T11:14:48;29.63;;;11.75;;
78895;SDS011;68284;59.124;37.910;2023-09-07T11:17:15;12.90;;;5.70;;
78895;SDS011;68284;59.124;37.910;2023-09-07T11:19:45;6.20;;;2.95;;
78895;SDS011;68284;59.124;37.910;2023-09-07T11:22:21;20.15;;;8.20;;
78895;SDS011;68284;59.124;37.910;2023-09-07T11:24:52;9.98;;;4.05;;
78895;SDS011;68284;59.124;37.910;2023-09-07T11:27:20;7.05;;;3.53;;
78895;SDS011;68284;59.124;37.910;2023-09-07T11:30:03;3.42;;;1.30;;
78895;SDS011;68284;59.124;37.910;2023-09-07T11:32:34;13.20;;;6.68;;
78895;SDS011;68284;59.124;37.910;2023-09-07T11:35:04;10.63;;;4.55;;
78895;SDS011;68284;59.124;37.910;2023-09-07T11:37:35;21.80;;;7.88;;
78895;SDS011;68284;59.124;37.910;2023-09-07T11:40:05;20.48;;;8.65;;
78895;SDS011;68284;59.124;37.910;2023-09-07T11:42:44;17.70;;;8.57;;
78895;SDS011;68284;59.124;37.910;2023-09-07T11:45:16;16.98;;;7.47;;
78895;SDS011;68284;59.124;37.910;2023-09-07T11:47:56;9.45;;;5.35;;
78895;SDS011;68284;59.124;37.910;2023-09-07T11:50:25;11.68;;;5.32;;
78895;SDS011;68284;59.124;37.910;2023-09-07T11:53:01;7.47;;;2.95;;
78895;SDS011;68284;59.124;37.910;2023-09-07T11:55:28;4.63;;;2.60;;
78895;SDS011;68284;59.124;37.910;2023-09-07T11:57:56;13.38;;;5.72;;
78895;SDS011;68284;59.124;37.910;2023-09-07T12:00:30;16.83;;;7.63;;
78895;SDS011;68284;59.124;37.910;2023-09-07T12:03:00;3.70;;;2.00;;
78895;SDS011;68284;59.124;37.910;2023-09-07T12:05:31;10.85;;;4.75;;
78895;SDS011;68284;59.124;37.910;2023-09-07T12:08:01;13.93;;;5.25;;
78895;SDS011;68284;59.124;37.910;2023-09-07T12:10:33;24.80;;;9.43;;
78895;SDS011;68284;59.124;37.910;2023-09-07T12:13:01;7.32;;;4.20;;
78895;SDS011;68284;59.124;37.910;2023-09-07T12:15:30;10.48;;;4.43;;
78895;SDS011;68284;59.124;37.910;2023-09-07T12:18:00;20.23;;;8.00;;
78895;SDS011;68284;59.124;37.910;2023-09-07T12:20:27;18.40;;;7.65;;
78895;SDS011;68284;59.124;37.910;2023-09-07T12:22:53;25.13;;;10.05;;
78895;SDS011;68284;59.124;37.910;2023-09-07T12:25:20;27.02;;;13.48;;
78895;SDS011;68284;59.124;37.910;2023-09-07T12:27:50;24.08;;;9.35;;
78895;SDS011;68284;59.124;37.910;2023-09-07T12:33:46;21.17;;;7.75;;
78895;SDS011;68284;59.124;37.910;2023-09-07T12:36:16;28.40;;;10.00;;
78895;SDS011;68284;59.124;37.910;2023-09-07T12:38:44;31.23;;;11.10;;
78895;SDS011;68284;59.124;37.910;2023-09-07T12:41:20;16.92;;;5.38;;
78895;SDS011;68284;59.124;37.910;2023-09-07T12:43:48;20.75;;;10.43;;
78895;SDS011;68284;59.124;37.910;2023-09-07T12:46:24;22.85;;;12.38;;
78895;SDS011;68284;59.124;37.910;2023-09-07T12:48:54;8.07;;;4.40;;
78895;SDS011;68284;59.124;37.910;2023-09-07T12:51:26;10.57;;;3.80;;
78895;SDS011;68284;59.124;37.910;2023-09-07T12:53:53;19.92;;;6.78;;
78895;SDS011;68284;59.124;37.910;2023-09-07T12:56:24;6.05;;;2.60;;
78895;SDS011;68284;59.124;37.910;2023-09-07T12:58:57;12.75;;;4.70;;
78895;SDS011;68284;59.124;37.910;2023-09-07T13:01:28;13.95;;;6.32;;
78895;SDS011;68284;59.124;37.910;2023-09-07T13:03:57;12.77;;;5.07;;
78895;SDS011;68284;59.124;37.910;2023-09-07T13:06:24;13.60;;;5.50;;
78895;SDS011;68284;59.124;37.910;2023-09-07T13:08:53;7.72;;;3.15;;
78895;SDS011;68284;59.124;37.910;2023-09-07T13:11:25;24.00;;;9.75;;
78895;SDS011;68284;59.124;37.910;2023-09-07T13:13:55;24.38;;;6.88;;
78895;SDS011;68284;59.124;37.910;2023-09-07T13:16:25;18.35;;;5.88;;
78895;SDS011;68284;59.124;37.910;2023-09-07T13:18:59;10.23;;;4.18;;
78895;SDS011;68284;59.124;37.910;2023-09-07T13:21:38;10.60;;;4.32;;
78895;SDS011;68284;59.124;37.910;2023-09-07T13:24:13;10.00;;;4.28;;
78895;SDS011;68284;59.124;37.910;2023-09-07T13:26:47;22.92;;;10.13;;
78895;SDS011;68284;59.124;37.910;2023-09-07T13:29:19;10.52;;;4.90;;
78895;SDS011;68284;59.124;37.910;2023-09-07T13:32:14;7.25;;;3.45;;
78895;SDS011;68284;59.124;37.910;2023-09-07T13:34:49;3.50;;;1.77;;
78895;SDS011;68284;59.124;37.910;2023-09-07T13:37:16;3.33;;;1.40;;
78895;SDS011;68284;59.124;37.910;2023-09-07T13:39:45;3.33;;;1.23;;
78895;SDS011;68284;59.124;37.910;2023-09-07T13:42:18;3.20;;;1.40;;
78895;SDS011;68284;59.124;37.910;2023-09-07T13:44:47;5.15;;;1.10;;
78895;SDS011;68284;59.124;37.910;2023-09-07T13:47:23;2.42;;;1.42;;
78895;SDS011;68284;59.124;37.910;2023-09-07T13:49:52;3.03;;;1.52;;
78895;SDS011;68284;59.124;37.910;2023-09-07T13:52:25;2.35;;;1.30;;
78895;SDS011;68284;59.124;37.910;2023-09-07T13:55:05;4.75;;;2.10;;
78895;SDS011;68284;59.124;37.910;2023-09-07T13:57:34;5.18;;;2.05;;
78895;SDS011;68284;59.124;37.910;2023-09-07T14:00:10;5.72;;;1.83;;
78895;SDS011;68284;59.124;37.910;2023-09-07T14:02:40;4.55;;;1.45;;
78895;SDS011;68284;59.124;37.910;2023-09-07T14:05:09;3.63;;;1.42;;
78895;SDS011;68284;59.124;37.910;2023-09-07T14:07:37;5.07;;;2.13;;
78895;SDS011;68284;59.124;37.910;2023-09-07T14:10:06;3.80;;;1.33;;
78895;SDS011;68284;59.124;37.910;2023-09-07T14:12:36;2.60;;;1.77;;
78895;SDS011;68284;59.124;37.910;2023-09-07T14:15:08;3.83;;;1.25;;
78895;SDS011;68284;59.124;37.910;2023-09-07T14:17:36;1.02;;;0.90;;
78895;SDS011;68284;59.124;37.910;2023-09-07T14:20:07;1.23;;;0.80;;
78895;SDS011;68284;59.124;37.910;2023-09-07T14:22:39;0.93;;;0.60;;
78895;SDS011;68284;59.124;37.910;2023-09-07T14:25:10;2.85;;;1.00;;
78895;SDS011;68284;59.124;37.910;2023-09-07T14:27:36;5.78;;;2.13;;
78895;SDS011;68284;59.124;37.910;2023-09-07T14:30:06;10.02;;;2.03;;
78895;SDS011;68284;59.124;37.910;2023-09-07T14:32:36;11.30;;;2.83;;
78895;SDS011;68284;59.124;37.910;2023-09-07T14:35:02;5.80;;;2.75;;
78895;SDS011;68284;59.124;37.910;2023-09-07T14:37:38;10.65;;;3.22;;
78895;SDS011;68284;59.124;37.910;2023-09-07T14:40:12;4.80;;;1.98;;
78895;SDS011;68284;59.124;37.910;2023-09-07T14:42:41;8.30;;;2.55;;
78895;SDS011;68284;59.124;37.910;2023-09-07T14:45:11;7.60;;;3.35;;
78895;SDS011;68284;59.124;37.910;2023-09-07T14:47:39;8.25;;;2.95;;
78895;SDS011;68284;59.124;37.910;2023-09-07T14:50:10;5.88;;;2.50;;
78895;SDS011;68284;59.124;37.910;2023-09-07T14:52:37;10.93;;;5.38;;
78895;SDS011;68284;59.124;37.910;2023-09-07T14:55:10;12.15;;;4.95;;
78895;SDS011;68284;59.124;37.910;2023-09-07T14:57:36;8.65;;;3.78;;
78895;SDS011;68284;59.124;37.910;2023-09-07T15:00:03;14.32;;;5.05;;
78895;SDS011;68284;59.124;37.910;2023-09-07T15:02:33;11.02;;;4.57;;
78895;SDS011;68284;59.124;37.910;2023-09-07T15:05:00;13.48;;;5.40;;
78895;SDS011;68284;59.124;37.910;2023-09-07T15:07:32;14.73;;;5.82;;
78895;SDS011;68284;59.124;37.910;2023-09-07T15:10:06;23.50;;;8.90;;
78895;SDS011;68284;59.124;37.910;2023-09-07T15:12:33;13.10;;;5.57;;